Time;durP1;ratioP1;P1;durP2;ratioP2;P2;SDS_P1;SDS_P2;PMS_P1;PMS_P2;Temp;Humidity;BMP_temperature;BMP_pressure;BME280_temperature;BME280_humidity;BME280_pressure;Samples;Min_cycle;Max_cycle;Signal;HPM_P1;HPM_P2
2021/12/19 00:09:21;;;;;;;0.17;0.17;;;;;;;22.81;18.82;98866.03;5102689;28;20050;-68
2021/12/19 00:11:47;;;;;;;0.10;0.10;;;;;;;22.80;18.68;98860.91;5113849;28;20028;-69
2021/12/19 00:14:12;;;;;;;0.10;0.10;;;;;;;22.80;18.52;98858.19;5114777;28;20201;-69
2021/12/19 00:16:37;;;;;;;0.10;0.10;;;;;;;22.80;18.61;98864.47;5113553;28;20093;-69
2021/12/19 00:19:03;;;;;;;0.10;0.10;;;;;;;22.79;18.63;98862.03;5113773;28;20023;-69
2021/12/19 00:21:28;;;;;;;0.10;0.10;;;;;;;22.79;18.61;98868.28;5112911;28;20034;-69
2021/12/19 00:23:54;;;;;;;0.10;0.10;;;;;;;22.79;18.59;98867.47;5114262;28;20024;-69
2021/12/19 00:26:19;;;;;;;0.10;0.10;;;;;;;22.79;18.63;98862.03;5114290;28;20105;-69
2021/12/19 00:28:45;;;;;;;0.10;0.10;;;;;;;22.79;18.50;98856.59;5113886;28;20473;-68
2021/12/19 00:31:11;;;;;;;0.10;0.10;;;;;;;22.79;18.49;98856.59;5113771;28;20027;-69
2021/12/19 00:33:37;;;;;;;0.10;0.10;;;;;;;22.78;18.42;98854.97;5113650;28;20023;-69
2021/12/19 00:36:03;;;;;;;0.10;0.10;;;;;;;22.77;18.43;98847.94;5114078;28;20085;-68
2021/12/19 00:38:28;;;;;;;0.10;0.10;;;;;;;22.78;18.49;98858.47;5112440;28;20032;-68
2021/12/19 00:40:54;;;;;;;0.10;0.10;;;;;;;22.78;18.40;98853.03;5113630;28;20387;-68
2021/12/19 00:46:05;;;;;;;0.10;0.10;;;;;;;22.78;18.43;98849.53;5113664;28;20020;-69
2021/12/19 00:48:30;;;;;;;0.10;0.10;;;;;;;22.79;18.35;98851.16;5113564;28;20040;-69
2021/12/19 00:50:55;;;;;;;0.10;0.10;;;;;;;22.78;18.27;98838.63;5113399;28;20027;-69
2021/12/19 00:53:21;;;;;;;0.10;0.10;;;;;;;22.77;18.32;98842.47;5113820;28;20024;-69
2021/12/19 00:55:46;;;;;;;0.10;0.10;;;;;;;22.79;18.27;98834.81;5113659;28;20031;-69
2021/12/19 00:58:12;;;;;;;0.10;0.10;;;;;;;22.78;18.32;98822.28;5113708;28;20019;-68
2021/12/19 01:00:37;;;;;;;0.15;0.15;;;;;;;22.78;18.40;98827.72;5113627;28;20030;-68
2021/12/19 01:03:03;;;;;;;0.10;0.10;;;;;;;22.79;18.18;98840.25;5114428;28;20145;-68
2021/12/19 01:05:29;;;;;;;0.10;0.10;;;;;;;22.76;18.32;98849.81;5113233;28;20024;-69
2021/12/19 01:07:55;;;;;;;0.10;0.10;;;;;;;22.77;18.23;98842.47;5113484;28;20023;-68
2021/12/19 01:10:20;;;;;;;0.10;0.10;;;;;;;22.78;18.18;98838.63;5131736;28;20047;-68
2021/12/19 01:12:46;;;;;;;0.10;0.10;;;;;;;22.77;18.01;98837.03;5133926;28;20050;-68
2021/12/19 01:15:13;;;;;;;0.10;0.10;;;;;;;22.76;18.14;98836.19;5134177;28;20080;-68
2021/12/19 01:17:38;;;;;;;0.15;0.15;;;;;;;22.76;18.07;98833.47;5134231;28;20091;-68
2021/12/19 01:20:06;;;;;;;0.10;0.10;;;;;;;22.77;18.04;98831.59;5134075;28;20023;-68
2021/12/19 01:22:32;;;;;;;0.10;0.10;;;;;;;22.75;18.28;98828.34;5133672;28;20031;-68
2021/12/19 01:24:57;;;;;;;0.15;0.15;;;;;;;22.77;18.11;98831.59;5134032;28;20088;-68
2021/12/19 01:27:22;;;;;;;0.10;0.10;;;;;;;22.77;18.15;98842.47;5134316;28;20083;-69
2021/12/19 01:29:48;;;;;;;0.10;0.10;;;;;;;22.76;18.00;98824.50;5135505;27;20027;-69
2021/12/19 01:32:15;;;;;;;0.10;0.10;;;;;;;22.77;18.19;98837.81;5137640;27;20019;-69
2021/12/19 01:34:40;;;;;;;0.10;0.10;;;;;;;22.75;18.22;98833.78;5117651;27;20024;-68
2021/12/19 01:37:05;;;;;;;0.10;0.10;;;;;;;22.77;18.21;98834.31;5116906;28;20026;-69
2021/12/19 01:39:31;;;;;;;0.10;0.10;;;;;;;22.76;18.14;98829.97;5116802;28;20028;-68
2021/12/19 01:41:57;;;;;;;0.13;0.10;;;;;;;22.76;18.12;98808.19;5117250;28;20034;-68
2021/12/19 01:44:23;;;;;;;0.10;0.10;;;;;;;22.75;18.20;98807.38;5116984;28;20027;-68
2021/12/19 01:46:48;;;;;;;0.10;0.10;;;;;;;22.76;18.08;98802.72;5116967;28;20030;-68
2021/12/19 01:49:14;;;;;;;0.10;0.10;;;;;;;22.76;18.08;98808.97;5117027;28;20027;-68
2021/12/19 01:51:40;;;;;;;0.10;0.10;;;;;;;22.76;18.08;98808.97;5098741;28;20365;-68
2021/12/19 01:54:05;;;;;;;0.10;0.10;;;;;;;22.77;17.96;98798.91;5116477;28;20095;-69
2021/12/19 01:56:31;;;;;;;0.20;0.20;;;;;;;22.78;17.94;98800.50;5116798;28;20069;-69
2021/12/19 01:58:56;;;;;;;0.10;0.10;;;;;;;22.76;18.00;98795.34;5116413;28;20104;-69
2021/12/19 02:01:22;;;;;;;0.17;0.17;;;;;;;22.78;18.05;98805.94;5116441;28;20035;-69
2021/12/19 02:03:47;;;;;;;0.10;0.10;;;;;;;22.78;18.07;98800.50;5116242;28;20062;-68
2021/12/19 02:06:12;;;;;;;0.10;0.10;;;;;;;22.77;17.88;98801.63;5116603;28;20028;-68
2021/12/19 02:08:38;;;;;;;0.10;0.10;;;;;;;22.76;18.00;98798.06;5120343;27;20050;-68
2021/12/19 02:11:03;;;;;;;0.10;0.10;;;;;;;22.77;18.06;98783.34;5118593;27;20027;-68
2021/12/19 02:13:28;;;;;;;0.10;0.10;;;;;;;22.76;18.07;98786.38;5137060;27;20023;-68
2021/12/19 02:15:54;;;;;;;0.20;0.20;;;;;;;22.76;17.98;98780.94;5136971;27;20027;-68
2021/12/19 02:18:21;;;;;;;0.20;0.20;;;;;;;22.76;17.86;98780.94;5137085;27;20035;-69
2021/12/19 02:20:52;;;;;;;0.20;0.20;;;;;;;22.75;17.92;98779.31;5136594;27;20027;-69
2021/12/19 02:23:18;;;;;;;0.30;0.20;;;;;;;22.75;18.03;98773.88;5137058;27;20080;-69
2021/12/19 02:25:44;;;;;;;0.10;0.10;;;;;;;22.76;17.92;98783.66;5136513;27;20019;-69
2021/12/19 02:28:09;;;;;;;0.10;0.10;;;;;;;22.74;17.96;98788.63;5136825;27;20029;-68
2021/12/19 02:30:35;;;;;;;0.10;0.10;;;;;;;22.75;17.85;98792.94;5136600;27;20019;-68
2021/12/19 02:33:00;;;;;;;0.20;0.20;;;;;;;22.75;17.83;98777.41;5136611;27;20011;-68
2021/12/19 02:35:30;;;;;;;0.10;0.10;;;;;;;22.75;17.83;98768.44;5136524;27;20024;-68
2021/12/19 02:48:09;;;;;;;0.17;0.17;;;;;;;22.74;17.82;98775.00;5135973;27;20027;-68
2021/12/19 02:48:49;;;;;;;0.55;0.30;;;;;;;22.77;17.76;98772.47;5136192;27;20034;-68
2021/12/19 02:51:15;;;;;;;0.10;0.10;;;;;;;22.75;17.53;98774.69;5136341;27;20373;-68
2021/12/19 02:53:41;;;;;;;0.10;0.10;;;;;;;22.73;17.77;98771.44;5135928;27;20023;-69
2021/12/19 02:56:08;;;;;;;0.20;0.20;;;;;;;22.72;17.54;98763.63;5136121;27;20035;-69
2021/12/19 02:58:34;;;;;;;0.10;0.10;;;;;;;22.74;17.55;98767.63;5136099;27;20074;-69
2021/12/19 03:01:00;;;;;;;0.20;0.20;;;;;;;22.74;17.39;98773.06;5136284;27;20492;-68
2021/12/19 03:03:25;;;;;;;0.10;0.10;;;;;;;22.73;17.41;98771.44;5135913;27;20020;-69
2021/12/19 03:05:51;;;;;;;0.10;0.10;;;;;;;22.72;17.53;98760.91;5136092;27;20076;-68
2021/12/19 03:08:16;;;;;;;0.15;0.15;;;;;;;22.71;17.45;98751.91;5135444;27;20451;-69
2021/12/19 03:18:17;;;;;;;0.20;0.20;;;;;;;22.76;17.39;98753.72;5135707;27;20072;-69
2021/12/19 03:20:42;;;;;;;0.10;0.10;;;;;;;22.74;17.32;98754.00;5135825;27;20043;-69
2021/12/19 03:23:09;;;;;;;0.10;0.10;;;;;;;22.74;17.35;98751.28;5135286;27;20456;-69
2021/12/19 03:25:34;;;;;;;0.10;0.10;;;;;;;22.75;17.27;98739.28;5135284;27;20091;-68
2021/12/19 03:28:00;;;;;;;0.20;0.20;;;;;;;22.73;17.40;98736.06;5136093;27;20493;-69
2021/12/19 03:30:25;;;;;;;0.10;0.10;;;;;;;22.73;17.30;98733.34;5135372;27;20023;-69
2021/12/19 03:32:51;;;;;;;0.13;0.13;;;;;;;22.72;17.25;98726.28;5132882;27;20428;-69
2021/12/19 03:35:17;;;;;;;0.20;0.20;;;;;;;22.73;17.23;98733.34;5114718;28;20032;-69
2021/12/19 03:37:43;;;;;;;0.13;0.13;;;;;;;22.72;17.20;98730.94;5114421;28;20028;-69
2021/12/19 03:40:12;;;;;;;0.10;0.10;;;;;;;22.72;17.23;98725.50;5096183;28;20111;-69
2021/12/19 03:42:42;;;;;;;0.20;0.20;;;;;;;22.72;17.15;98730.94;5114727;28;20047;-69
2021/12/19 03:45:09;;;;;;;0.20;0.20;;;;;;;22.72;17.18;98737.19;5114704;28;20058;-69
2021/12/19 03:47:35;;;;;;;0.15;0.15;;;;;;;22.71;17.20;98723.88;5096825;28;20051;-68
2021/12/19 03:50:03;;;;;;;0.10;0.10;;;;;;;22.72;17.14;98720.06;5114971;28;20023;-68
2021/12/19 03:52:28;;;;;;;0.10;0.10;;;;;;;22.72;17.06;98714.59;5114014;28;20028;-69
2021/12/19 03:54:56;;;;;;;0.20;0.20;;;;;;;22.72;17.08;98703.72;5114624;28;20355;-68
2021/12/19 03:57:21;;;;;;;0.10;0.10;;;;;;;22.71;17.16;98702.09;5114488;28;20030;-69
2021/12/19 03:59:48;;;;;;;0.20;0.20;;;;;;;22.71;17.14;98708.34;5114427;28;20027;-69
2021/12/19 04:02:16;;;;;;;0.20;0.20;;;;;;;22.71;17.09;98707.53;5114411;28;20043;-69
2021/12/19 04:04:41;;;;;;;0.10;0.10;;;;;;;22.71;17.01;98713.78;5114460;28;20111;-69
2021/12/19 04:07:07;;;;;;;0.40;0.20;;;;;;;22.73;17.12;98705.31;5113950;28;20020;-68
2021/12/19 04:09:32;;;;;;;0.20;0.20;;;;;;;22.71;17.08;98704.81;5125800;27;20050;-69
2021/12/19 04:11:59;;;;;;;0.20;0.20;;;;;;;22.72;17.02;98709.16;5134416;27;20136;-69
2021/12/19 04:14:24;;;;;;;0.10;0.10;;;;;;;22.73;16.86;98708.03;5134647;27;20031;-69
2021/12/19 04:16:50;;;;;;;0.10;0.10;;;;;;;22.70;16.93;98704.03;5134952;27;20357;-69
2021/12/19 04:19:15;;;;;;;0.20;0.20;;;;;;;22.72;17.05;98701.00;5134659;27;20023;-69
2021/12/19 04:21:41;;;;;;;0.20;0.20;;;;;;;22.72;16.98;98704.50;5134681;27;20461;-68
2021/12/19 04:24:06;;;;;;;0.15;0.15;;;;;;;22.73;16.86;98711.53;5134554;28;20084;-68
2021/12/19 04:26:32;;;;;;;0.10;0.10;;;;;;;22.71;16.95;98710.25;5134302;27;20457;-68
2021/12/19 04:28:58;;;;;;;0.10;0.10;;;;;;;22.71;16.93;98712.97;5134347;28;20027;-68
2021/12/19 04:31:23;;;;;;;0.10;0.10;;;;;;;22.71;16.86;98707.53;5134523;28;20023;-69
2021/12/19 04:33:49;;;;;;;0.10;0.10;;;;;;;22.71;16.92;98702.09;5134411;28;20020;-69
2021/12/19 04:36:22;;;;;;;0.10;0.10;;;;;;;22.71;16.86;98702.09;5134229;28;20066;-69
2021/12/19 04:57:59;;;;;;;0.55;0.20;;;;;;;22.69;16.55;98683.34;5071209;28;20036;-69
2021/12/19 05:00:45;;;;;;;0.10;0.10;;;;;;;22.69;16.68;98678.69;5071157;28;20033;-69
2021/12/19 05:14:14;;;;;;;0.13;0.13;;;;;;;22.74;16.67;98682.41;5074835;28;20106;-69
2021/12/19 05:16:43;;;;;;;0.20;0.20;;;;;;;22.71;16.56;98677.59;5074485;28;20032;-69
2021/12/19 05:19:42;;;;;;;0.10;0.10;;;;;;;22.71;16.59;98685.75;5074429;28;20036;-69
2021/12/19 05:21:58;;;;;;;0.20;0.20;;;;;;;22.70;16.49;98679.50;5073695;28;20079;-69
2021/12/19 05:27:08;;;;;;;0.22;0.10;;;;;;;22.71;16.48;98702.88;5137993;27;20034;-68
2021/12/19 05:29:34;;;;;;;0.17;0.17;;;;;;;22.68;16.55;98693.44;5137594;27;20491;-68
2021/12/19 05:32:00;;;;;;;0.10;0.10;;;;;;;22.66;16.63;98698.38;5137443;27;20027;-69
2021/12/19 05:34:26;;;;;;;0.20;0.20;;;;;;;22.68;16.54;98687.19;5137328;27;20024;-69
2021/12/19 05:47:35;;;;;;;0.20;0.20;;;;;;;22.69;16.45;98705.13;5119762;27;20023;-69
2021/12/19 05:50:00;;;;;;;0.10;0.10;;;;;;;22.69;16.38;98714.09;5137463;27;20427;-69
2021/12/19 05:52:26;;;;;;;0.20;0.20;;;;;;;22.71;16.52;98711.06;5137311;27;20031;-69
2021/12/19 05:54:52;;;;;;;0.10;0.10;;;;;;;22.71;16.56;98707.53;5137300;27;20054;-69
2021/12/19 05:57:17;;;;;;;0.28;0.20;;;;;;;22.68;16.50;98709.78;5137280;27;20038;-69
2021/12/19 05:59:42;;;;;;;0.20;0.20;;;;;;;22.68;16.56;98719.88;5137278;27;20027;-69
2021/12/19 06:02:08;;;;;;;0.10;0.10;;;;;;;22.68;16.43;98715.22;5136835;27;20499;-69
2021/12/19 06:04:34;;;;;;;0.20;0.20;;;;;;;22.68;16.35;98715.22;5137159;27;20077;-68
2021/12/19 06:07:00;;;;;;;0.20;0.20;;;;;;;22.67;16.45;98716.31;5137120;27;20023;-68
2021/12/19 06:09:25;;;;;;;0.20;0.20;;;;;;;22.68;16.50;98719.88;5136789;27;20039;-68
2021/12/19 06:11:50;;;;;;;0.15;0.10;;;;;;;22.68;16.42;98719.88;5136920;27;20045;-69
2021/12/19 06:14:16;;;;;;;0.47;0.30;;;;;;;22.67;16.35;98716.31;5136849;27;20024;-69
2021/12/19 06:16:41;;;;;;;0.17;0.17;;;;;;;22.68;16.42;98715.22;5136310;27;20393;-68
2021/12/19 06:19:07;;;;;;;0.10;0.10;;;;;;;22.67;16.42;98712.78;5136648;27;20068;-69
2021/12/19 06:21:32;;;;;;;0.17;0.17;;;;;;;22.67;16.49;98713.59;5137497;27;20033;-68
2021/12/19 06:23:57;;;;;;;0.20;0.10;;;;;;;22.68;16.38;98715.22;5136794;27;20468;-68
2021/12/19 06:26:23;;;;;;;0.10;0.10;;;;;;;22.68;16.45;98715.22;5136771;27;20023;-68
2021/12/19 06:28:48;;;;;;;0.10;0.10;;;;;;;22.67;16.48;98716.31;5136371;27;20473;-68
2021/12/19 06:31:15;;;;;;;0.25;0.22;;;;;;;22.68;16.46;98719.88;5136628;27;20035;-69
2021/12/19 06:33:40;;;;;;;0.28;0.28;;;;;;;22.67;16.30;98724.47;5118454;27;20103;-68
2021/12/19 06:36:06;;;;;;;0.32;0.30;;;;;;;22.67;16.40;98713.59;5136651;27;20023;-69
2021/12/19 06:38:32;;;;;;;0.25;0.10;;;;;;;22.67;16.39;98702.69;5136573;27;20473;-69
2021/12/19 06:40:57;;;;;;;0.10;0.10;;;;;;;22.69;16.41;98710.56;5136196;27;20389;-69
2021/12/19 06:43:22;;;;;;;0.20;0.20;;;;;;;22.66;16.35;98698.38;5136242;27;20031;-69
2021/12/19 06:45:48;;;;;;;0.25;0.25;;;;;;;22.67;16.18;98710.88;5136291;27;20024;-69
2021/12/19 06:48:13;;;;;;;0.20;0.20;;;;;;;22.67;16.20;98708.16;5118206;27;20034;-69
2021/12/19 06:50:39;;;;;;;0.20;0.15;;;;;;;22.67;16.33;98712.78;5136288;27;20461;-69
2021/12/19 06:53:04;;;;;;;0.10;0.10;;;;;;;22.68;16.27;98708.97;5136512;27;20062;-69
2021/12/19 06:55:30;;;;;;;0.13;0.13;;;;;;;22.68;16.33;98715.22;5136570;27;20027;-68
2021/12/19 06:57:55;;;;;;;0.20;0.20;;;;;;;22.68;16.28;98711.69;5136703;27;20434;-69
2021/12/19 07:00:22;;;;;;;0.13;0.13;;;;;;;22.66;16.33;98719.34;5136318;27;20027;-69
2021/12/19 07:02:47;;;;;;;0.15;0.15;;;;;;;22.66;16.34;98719.34;5135968;27;20541;-68
2021/12/19 07:05:13;;;;;;;0.20;0.20;;;;;;;22.66;16.15;98722.91;5136021;27;20023;-69
2021/12/19 07:07:38;;;;;;;0.10;0.10;;;;;;;22.67;16.21;98719.03;5117662;27;20042;-69
2021/12/19 07:10:05;;;;;;;0.13;0.13;;;;;;;22.66;16.21;98733.78;5136277;27;20047;-69
2021/12/19 07:12:30;;;;;;;0.43;0.30;;;;;;;22.66;16.30;98728.34;5136519;27;20050;-69
2021/12/19 07:14:56;;;;;;;0.30;0.20;;;;;;;22.65;16.30;98736.81;5136203;27;20465;-68
2021/12/19 07:17:22;;;;;;;0.43;0.40;;;;;;;22.67;16.18;98737.31;5136113;27;20073;-68
2021/12/19 07:19:47;;;;;;;0.10;0.10;;;;;;;22.67;16.23;98737.31;5137956;27;20083;-69
2021/12/19 07:22:13;;;;;;;0.20;0.20;;;;;;;22.66;16.16;98739.22;5136692;27;20075;-69
2021/12/19 07:24:38;;;;;;;0.17;0.17;;;;;;;22.66;16.19;98739.22;5135467;27;20031;-69
2021/12/19 07:27:03;;;;;;;0.10;0.10;;;;;;;22.66;16.13;98739.22;5134673;27;20033;-69
2021/12/19 07:29:30;;;;;;;0.28;0.22;;;;;;;22.66;15.87;98744.69;5135339;27;20023;-69
2021/12/19 07:31:55;;;;;;;0.20;0.20;;;;;;;22.66;16.20;98730.22;5135537;27;20027;-69
2021/12/19 07:34:28;;;;;;;0.20;0.20;;;;;;;22.66;16.21;98728.34;5145737;27;20490;-69
2021/12/19 07:36:54;;;;;;;0.10;0.10;;;;;;;22.65;16.00;98734.88;5155865;27;20034;-69
2021/12/19 07:39:27;;;;;;;0.20;0.20;;;;;;;22.66;16.22;98732.97;5156210;27;20019;-69
2021/12/19 07:41:52;;;;;;;0.20;0.20;;;;;;;22.67;16.08;98734.59;5156184;27;20038;-69
2021/12/19 07:44:18;;;;;;;0.30;0.30;;;;;;;22.66;16.06;98744.69;5155786;27;20022;-69
2021/12/19 07:46:44;;;;;;;0.20;0.20;;;;;;;22.67;16.01;98740.03;5155853;27;20064;-69
2021/12/19 07:49:10;;;;;;;0.20;0.20;;;;;;;22.66;16.05;98733.78;5155883;27;20030;-69
2021/12/19 07:51:35;;;;;;;0.20;0.20;;;;;;;22.66;16.16;98733.78;5155750;27;20087;-69
2021/12/19 07:54:01;;;;;;;0.20;0.20;;;;;;;22.66;16.06;98739.22;5155439;27;20418;-69
2021/12/19 07:56:27;;;;;;;0.10;0.10;;;;;;;22.65;16.08;98734.88;5155886;27;20034;-69
2021/12/19 07:58:52;;;;;;;0.10;0.10;;;;;;;;;;5155689;27;20376;-68
2021/12/19 08:01:17;;;;;;;0.10;0.10;;;;;;;22.65;16.09;98737.59;5155512;27;20399;-70
2021/12/19 08:03:43;;;;;;;0.20;0.20;;;;;;;22.66;16.10;98744.69;5155242;27;20251;-68
2021/12/19 08:06:08;;;;;;;0.13;0.13;;;;;;;22.66;16.06;98755.56;5155206;27;20495;-68
2021/12/19 08:08:35;;;;;;;0.20;0.20;;;;;;;22.65;16.09;98753.94;5155156;27;20107;-69
2021/12/19 08:13:44;;;;;;;0.17;0.10;;;;;;;22.67;16.09;98756.38;5155435;27;20096;-68
2021/12/19 08:16:10;;;;;;;0.20;0.20;;;;;;;22.68;16.05;98758.78;5155977;27;20030;-68
2021/12/19 08:18:35;;;;;;;0.10;0.10;;;;;;;22.66;16.00;98765.63;5155251;27;20382;-68
2021/12/19 08:21:01;;;;;;;0.17;0.13;;;;;;;22.66;16.34;98771.91;5156329;27;20048;-68
2021/12/19 08:23:26;;;;;;;0.20;0.20;;;;;;;22.65;16.25;98766.75;5155253;27;20369;-68
2021/12/19 08:25:51;;;;;;;0.10;0.10;;;;;;;22.66;16.06;98766.47;5156399;27;20033;-68
2021/12/19 08:28:17;;;;;;;0.10;0.10;;;;;;;22.65;15.98;98767.56;5155554;27;20395;-68
2021/12/19 08:30:42;;;;;;;0.13;0.13;;;;;;;22.66;16.17;98777.34;5156146;27;20430;-68
2021/12/19 08:33:08;;;;;;;0.20;0.20;;;;;;;22.66;16.13;98777.34;5155547;27;20376;-68
2021/12/19 08:35:33;;;;;;;0.20;0.20;;;;;;;22.65;16.03;98773.00;5135782;27;20030;-68
2021/12/19 08:37:59;;;;;;;0.10;0.10;;;;;;;22.65;16.07;98778.44;5134820;27;20019;-68
2021/12/19 08:40:26;;;;;;;0.10;0.10;;;;;;;22.65;16.10;98774.94;5120754;27;20023;-68
2021/12/19 08:42:52;;;;;;;0.10;0.10;;;;;;;22.63;16.07;98783.41;5138895;27;20025;-69
2021/12/19 08:45:18;;;;;;;0.10;0.10;;;;;;;22.63;16.16;98777.97;5140258;27;20068;-69
2021/12/19 08:47:43;;;;;;;0.10;0.10;;;;;;;22.65;16.10;98780.38;5138775;27;20019;-69
2021/12/19 08:50:09;;;;;;;0.20;0.20;;;;;;;22.65;16.02;98775.72;5138987;27;20023;-69
2021/12/19 08:52:35;;;;;;;0.10;0.10;;;;;;;22.64;16.17;98779.56;5140152;27;20023;-69
2021/12/19 08:55:01;;;;;;;0.17;0.10;;;;;;;22.65;16.16;98791.28;5119984;27;20039;-68
2021/12/19 08:57:26;;;;;;;0.25;0.20;;;;;;;22.66;16.22;98781.97;5138648;27;20027;-68
2021/12/19 08:59:52;;;;;;;0.30;0.10;;;;;;;22.65;16.13;98781.19;5138410;27;20402;-68
2021/12/19 09:02:17;;;;;;;0.17;0.17;;;;;;;22.64;16.17;98790.44;5138438;27;20030;-68
2021/12/19 09:04:42;;;;;;;0.20;0.20;;;;;;;22.65;16.14;98783.91;5138370;27;20034;-68
2021/12/19 09:07:08;;;;;;;0.25;0.20;;;;;;;22.63;16.03;98788.06;5138320;27;20042;-68
2021/12/19 09:09:34;;;;;;;0.10;0.10;;;;;;;22.62;16.08;98789.94;5137841;27;20058;-69
2021/12/19 09:11:59;;;;;;;0.45;0.20;;;;;;;22.65;16.26;98792.06;5138170;27;20094;-69
2021/12/19 09:14:25;;;;;;;0.20;0.17;;;;;;;22.65;16.08;98796.72;5138096;27;20071;-69
2021/12/19 09:16:50;;;;;;;0.43;0.20;;;;;;;22.65;15.99;98802.97;5137803;27;20031;-69
2021/12/19 09:19:16;;;;;;;0.20;0.20;;;;;;;22.64;16.10;98801.34;5138069;27;20027;-68
2021/12/19 09:21:41;;;;;;;0.30;0.30;;;;;;;22.63;16.03;98794.28;5119799;27;20023;-68
2021/12/19 09:24:07;;;;;;;0.20;0.20;;;;;;;22.63;16.08;98797.03;5137642;27;20058;-68
2021/12/19 09:26:32;;;;;;;0.20;0.20;;;;;;;22.63;15.96;98802.47;5137855;27;20027;-68
2021/12/19 09:28:58;;;;;;;0.20;0.20;;;;;;;22.65;16.13;98800.22;5137859;27;20027;-68
2021/12/19 09:31:23;;;;;;;0.20;0.10;;;;;;;22.62;16.13;98803.56;5119087;27;20024;-68
2021/12/19 09:33:48;;;;;;;0.20;0.20;;;;;;;22.63;16.06;98799.75;5105912;27;20034;-68
2021/12/19 09:36:14;;;;;;;0.10;0.10;;;;;;;22.63;16.03;98804.38;5158468;27;20023;-68
2021/12/19 09:38:41;;;;;;;0.30;0.20;;;;;;;22.66;16.07;98806.47;5158420;27;20068;-68
2021/12/19 09:41:13;;;;;;;0.20;0.20;;;;;;;22.63;15.97;98802.47;5158655;27;20029;-68
2021/12/19 09:43:42;;;;;;;0.30;0.20;;;;;;;22.63;16.06;98798.94;5158427;27;20022;-68
2021/12/19 09:46:18;;;;;;;0.22;0.20;;;;;;;22.67;16.07;98805.38;5158032;27;20518;-69
2021/12/19 09:48:45;;;;;;;0.13;0.13;;;;;;;22.62;16.04;98800.03;5157922;27;20039;-68
2021/12/19 09:51:12;;;;;;;0.20;0.20;;;;;;;22.61;16.15;98801.97;5157188;27;20102;-68
2021/12/19 09:53:38;;;;;;;0.30;0.25;;;;;;;22.62;16.10;98798.13;5158141;27;20019;-68
2021/12/19 09:56:04;;;;;;;0.10;0.10;;;;;;;22.62;15.96;98795.41;5140199;27;20022;-68
2021/12/19 09:58:33;;;;;;;0.20;0.10;;;;;;;22.62;16.13;98798.13;5158003;27;20019;-68
2021/12/19 10:00:59;;;;;;;0.10;0.10;;;;;;;22.61;16.07;98796.53;5157981;27;20030;-68
2021/12/19 10:03:25;;;;;;;0.20;0.20;;;;;;;22.62;16.10;98806.28;5157890;27;20495;-68
2021/12/19 10:05:50;;;;;;;0.10;0.10;;;;;;;22.62;16.10;98800.03;5157886;27;20030;-68
2021/12/19 10:08:23;;;;;;;0.30;0.30;;;;;;;22.65;16.07;98802.16;5138976;27;20030;-69
2021/12/19 10:10:59;;;;;;;0.20;0.20;;;;;;;22.62;15.99;98809.00;5157764;27;20019;-69
2021/12/19 10:13:31;;;;;;;0.20;0.20;;;;;;;22.65;16.07;98805.69;5157778;27;20027;-69
2021/12/19 10:15:57;;;;;;;0.10;0.10;;;;;;;22.63;15.95;98804.38;5157335;27;20552;-68
2021/12/19 10:18:22;;;;;;;0.20;0.20;;;;;;;22.63;16.04;98813.34;5157410;27;20048;-68
2021/12/19 10:20:57;;;;;;;0.20;0.20;;;;;;;22.63;16.04;98813.34;5157215;27;20071;-68
2021/12/19 10:23:27;;;;;;;0.10;0.10;;;;;;;22.62;16.00;98819.91;5157251;27;20033;-68
2021/12/19 10:26:09;;;;;;;0.20;0.10;;;;;;;22.66;15.99;98820.91;5157475;27;20074;-68
2021/12/19 10:28:54;;;;;;;0.13;0.13;;;;;;;22.68;16.16;98810.53;5157246;27;20535;-68
2021/12/19 10:31:20;;;;;;;0.20;0.20;;;;;;;22.64;16.08;98820.38;5157473;27;20022;-68
2021/12/19 10:33:46;;;;;;;0.10;0.10;;;;;;;22.63;16.08;98826.97;5155452;27;20093;-68
2021/12/19 10:36:11;;;;;;;0.22;0.20;;;;;;;22.62;16.13;98819.91;5136472;27;20023;-68
2021/12/19 10:38:41;;;;;;;0.20;0.20;;;;;;;22.62;16.16;98819.91;5136558;27;20016;-68
2021/12/19 10:41:12;;;;;;;0.20;0.20;;;;;;;22.61;16.02;98821.03;5136711;27;20051;-68
2021/12/19 10:44:00;;;;;;;0.20;0.20;;;;;;;22.67;16.22;98824.44;5136623;27;20388;-68
2021/12/19 10:46:33;;;;;;;0.10;0.10;;;;;;;22.62;16.13;98819.91;5119081;27;20027;-68
2021/12/19 10:48:59;;;;;;;0.20;0.20;;;;;;;22.65;16.21;98823.94;5136341;27;20033;-68
2021/12/19 10:51:25;;;;;;;0.22;0.20;;;;;;;22.61;16.24;98831.91;5135831;27;20027;-68
2021/12/19 10:53:55;;;;;;;0.10;0.10;;;;;;;22.61;16.21;98823.75;5136299;27;20049;-68
2021/12/19 10:56:26;;;;;;;0.22;0.20;;;;;;;22.63;16.22;98828.88;5136532;27;20027;-68
2021/12/19 10:58:56;;;;;;;0.10;0.10;;;;;;;22.62;16.29;98827.28;5136744;27;20049;-68
2021/12/19 11:01:29;;;;;;;0.20;0.20;;;;;;;22.61;16.34;98828.38;5135869;27;20039;-68
2021/12/19 11:04:00;;;;;;;0.10;0.10;;;;;;;;;;5136449;27;20019;-68
2021/12/19 11:06:32;;;;;;;0.25;0.20;;;;;;;22.61;16.27;98834.63;5135954;27;20031;-68
2021/12/19 11:08:58;;;;;;;0.15;0.15;;;;;;;22.62;16.23;98836.22;5135589;27;20059;-68
2021/12/19 11:11:42;;;;;;;0.20;0.20;;;;;;;22.63;16.14;98826.97;5135486;27;20122;-68
2021/12/19 11:14:15;;;;;;;0.10;0.10;;;;;;;22.62;16.26;98833.50;5135910;27;20050;-68
2021/12/19 11:16:41;;;;;;;0.20;0.20;;;;;;;22.62;16.27;98832.72;5135487;27;20441;-69
2021/12/19 11:19:06;;;;;;;0.20;0.20;;;;;;;22.61;16.18;98834.63;5135792;27;20076;-68
2021/12/19 11:21:34;;;;;;;0.10;0.10;;;;;;;22.62;16.22;98835.44;5135859;27;20465;-69
2021/12/19 11:24:07;;;;;;;0.10;0.10;;;;;;;22.60;16.15;98846.63;5135581;27;20358;-69
2021/12/19 11:26:33;;;;;;;0.10;0.10;;;;;;;22.60;16.38;98841.19;5117872;27;20019;-69
2021/12/19 11:28:58;;;;;;;0.20;0.20;;;;;;;22.61;16.04;98841.97;5135486;27;20020;-69
2021/12/19 11:31:26;;;;;;;0.10;0.10;;;;;;;22.59;16.13;98839.56;5135423;27;20023;-68
2021/12/19 11:34:00;;;;;;;0.10;0.10;;;;;;;22.60;16.22;98843.13;5136578;27;20103;-68
2021/12/19 11:36:25;;;;;;;;;;;;;;;22.85;16.02;98844.44;5156176;27;20377;-67
2021/12/19 11:38:50;;;;;;;0.10;0.10;;;;;;;22.68;16.08;98848.63;5155661;27;20013;-68
2021/12/19 11:41:16;;;;;;;0.20;0.20;;;;;;;22.65;16.10;98841.06;5120572;27;20023;-68
2021/12/19 11:43:43;;;;;;;0.13;0.13;;;;;;;22.64;16.04;98839.44;5155686;27;20145;-68
2021/12/19 11:46:22;;;;;;;0.10;0.10;;;;;;;22.61;16.23;98834.63;5155782;27;20050;-68
2021/12/19 11:49:09;;;;;;;0.10;0.10;;;;;;;22.62;16.13;98847.13;5139065;27;20033;-68
2021/12/19 11:51:34;;;;;;;0.20;0.20;;;;;;;22.63;15.96;98850.69;5139985;27;20030;-69
2021/12/19 11:54:11;;;;;;;0.13;0.13;;;;;;;22.64;16.09;98853.06;5156108;27;20382;-68
2021/12/19 11:56:37;;;;;;;0.10;0.10;;;;;;;22.61;16.08;98850.97;5155882;27;20132;-67
2021/12/19 11:59:02;;;;;;;0.10;0.10;;;;;;;22.59;16.08;98847.72;5155735;27;20470;-69
2021/12/19 12:01:29;;;;;;;0.20;0.20;;;;;;;22.60;16.10;98854.00;5119773;27;20035;-69
2021/12/19 12:04:04;;;;;;;0.10;0.10;;;;;;;22.60;15.95;98860.25;5155392;27;20019;-68
2021/12/19 12:06:36;;;;;;;0.20;0.20;;;;;;;22.61;15.93;98866.47;5155673;27;20037;-68
2021/12/19 12:09:28;;;;;;;0.10;0.10;;;;;;;22.60;15.90;98865.69;5155319;27;20125;-68
2021/12/19 12:12:17;;;;;;;0.20;0.20;;;;;;;22.67;16.13;98863.34;5155457;27;20079;-68
2021/12/19 12:14:59;;;;;;;0.10;0.10;;;;;;;22.65;15.93;98871.03;5155067;27;20071;-68
2021/12/19 12:17:31;;;;;;;0.10;0.10;;;;;;;22.61;15.94;98875.47;5155540;27;20023;-68
2021/12/19 12:19:59;;;;;;;0.10;0.10;;;;;;;22.59;15.83;98868.72;5155193;27;20023;-68
2021/12/19 12:25:03;;;;;;;0.10;0.10;;;;;;;22.61;15.90;98867.31;5155224;27;20364;-69
2021/12/19 12:27:56;;;;;;;0.10;0.10;;;;;;;22.66;16.21;98875.38;5155288;27;20023;-68
2021/12/19 12:30:29;;;;;;;0.10;0.10;;;;;;;22.61;16.01;98883.66;5151950;27;20070;-68
2021/12/19 12:32:56;;;;;;;0.10;0.10;;;;;;;22.60;15.91;98881.22;5154863;27;20460;-69
2021/12/19 12:35:22;;;;;;;0.10;0.10;;;;;;;22.59;15.94;98891.28;5142571;27;20027;-68
2021/12/19 12:37:51;;;;;;;0.20;0.20;;;;;;;22.59;15.94;98880.41;5134626;28;20031;-68
2021/12/19 12:42:56;;;;;;;0.10;0.10;;;;;;;22.58;15.90;98895.13;5134571;28;20032;-68
2021/12/19 12:45:22;;;;;;;0.20;0.20;;;;;;;22.60;15.84;98887.47;5134436;28;20127;-68
2021/12/19 12:47:49;;;;;;;0.20;0.20;;;;;;;22.59;15.82;98895.94;5134408;28;20019;-68
2021/12/19 12:50:14;;;;;;;0.10;0.10;;;;;;;22.58;15.95;98886.97;5134093;28;20512;-68
2021/12/19 12:52:39;;;;;;;0.15;0.15;;;;;;;22.60;15.89;98892.13;5116031;28;20027;-68